Time;durP1;ratioP1;P1;durP2;ratioP2;P2;SDS_P1;SDS_P2;PMS_P1;PMS_P2;Temp;Humidity;BMP_temperature;BMP_pressure;BME280_temperature;BME280_humidity;BME280_pressure;Samples;Min_cycle;Max_cycle;Signal;HPM_P1;HPM_P2
2023/06/12 00:00:12;;;;;;;;;;;;;;;27.43;44.78;101628.63;5066841;28;19976;-73
2023/06/12 00:02:37;;;;;;;;;;;;;;;27.41;44.66;101633.47;5063914;28;19912;-73
2023/06/12 00:05:04;;;;;;;;;;;;;;;27.40;44.72;101624.44;5056734;28;19968;-72
2023/06/12 00:07:30;;;;;;;;;;;;;;;27.39;44.80;101630.91;5055153;28;19936;-74
2023/06/12 00:09:55;;;;;;;;;;;;;;;27.38;44.91;101622.94;5060863;28;20434;-73
2023/06/12 00:12:20;;;;;;;;;;;;;;;27.38;44.82;101631.16;5065072;28;19925;-73
2023/06/12 00:14:45;;;;;;;;;;;;;;;27.36;44.68;101623.16;5068392;28;19920;-72
2023/06/12 00:17:11;;;;;;;;;;;;;;;27.37;44.60;101624.00;5065038;28;19979;-72
2023/06/12 00:19:36;;;;;;;;;;;;;;;27.36;44.74;101616.88;5061098;28;19916;-73
2023/06/12 00:22:01;;;;;;;;;;;;;;;27.35;44.79;101626.09;5068997;28;19919;-73
2023/06/12 00:24:27;;;;;;;;;;;;;;;27.35;44.64;101623.34;5062887;28;20011;-73
2023/06/12 00:26:52;;;;;;;;;;;;;;;27.33;44.61;101629.03;5057820;28;19923;-72
2023/06/12 00:29:17;;;;;;;;;;;;;;;27.34;44.50;101632.59;5073180;28;19917;-72
2023/06/12 00:31:43;;;;;;;;;;;;;;;27.32;44.72;101629.25;5057858;28;19924;-73
2023/06/12 00:34:08;;;;;;;;;;;;;;;27.32;44.87;101629.25;5048473;28;19947;-73
2023/06/12 00:36:34;;;;;;;;;;;;;;;27.31;44.80;101633.84;5064297;28;19940;-73
2023/06/12 00:39:00;;;;;;;;;;;;;;;27.31;44.52;101633.00;5059760;28;20490;-73
2023/06/12 00:41:25;;;;;;;;;;;;;;;27.29;44.89;101629.66;5066619;28;19920;-73
2023/06/12 00:43:50;;;;;;;;;;;;;;;27.29;44.89;101626.94;5063212;28;19917;-73
2023/06/12 00:46:15;;;;;;;;;;;;;;;27.28;44.60;101619.78;5060284;28;19913;-73
2023/06/12 00:48:41;;;;;;;;;;;;;;;27.28;44.69;101619.78;5063178;28;19917;-73
2023/06/12 00:51:08;;;;;;;;;;;;;;;27.27;44.89;101629.00;5069241;28;19913;-73
2023/06/12 00:53:33;;;;;;;;;;;;;;;27.26;44.49;101625.44;5056876;28;19916;-72
2023/06/12 00:55:59;;;;;;;;;;;;;;;27.25;44.73;101631.97;5071975;28;19919;-71
2023/06/12 00:58:24;;;;;;;;;;;;;;;27.25;44.87;101628.41;5056351;28;19924;-72
2023/06/12 01:00:50;;;;;;;;;;;;;;;27.24;44.74;101629.44;5061940;28;19919;-72
2023/06/12 01:03:15;;;;;;;;;;;;;;;27.23;44.75;101625.88;5068017;28;19913;-73
2023/06/12 01:05:44;;;;;;;;;;;;;;;27.23;44.82;101631.34;5057533;28;19913;-73
2023/06/12 01:08:28;;;;;;;;;;;;;;;27.21;44.67;101622.50;5052375;28;19916;-73
2023/06/12 01:10:57;;;;;;;;;;;;;;;27.20;44.70;101618.09;5059304;28;19935;-73
2023/06/12 01:13:22;;;;;;;;;;;;;;;27.20;44.81;101620.00;5039719;28;19929;-72
2023/06/12 01:15:47;;;;;;;;;;;;;;;27.19;44.80;101613.69;5050574;28;19948;-72
2023/06/12 01:18:13;;;;;;;;;;;;;;;27.18;44.83;101617.44;5050678;28;19948;-72
2023/06/12 01:20:40;;;;;;;;;;;;;;;27.17;44.47;101613.88;5056238;28;19921;-72
2023/06/12 01:23:15;;;;;;;;;;;;;;;27.17;44.76;101623.97;5053645;28;19921;-73
2023/06/12 01:25:59;;;;;;;;;;;;;;;27.15;44.72;101613.25;5057985;28;19920;-72
2023/06/12 01:28:40;;;;;;;;;;;;;;;27.15;44.68;101615.16;5066170;28;20309;-73
2023/06/12 01:31:06;;;;;;;;;;;;;;;27.14;44.65;101622.50;5062304;28;19909;-73
2023/06/12 01:33:34;;;;;;;;;;;;;;;27.14;44.60;101624.38;5057312;28;19935;-73
2023/06/12 01:36:00;;;;;;;;;;;;;;;27.13;44.60;101617.22;5051919;28;19913;-73
2023/06/12 01:38:25;;;;;;;;;;;;;;;27.12;44.62;101621.84;5061579;28;19928;-73
2023/06/12 01:40:50;;;;;;;;;;;;;;;27.12;44.87;101621.00;5050378;28;20254;-72
2023/06/12 01:43:16;;;;;;;;;;;;;;;27.12;44.56;101623.75;5062421;28;19920;-72
2023/06/12 01:45:41;;;;;;;;;;;;;;;27.10;44.73;101618.50;5067811;28;19917;-72
2023/06/12 01:48:06;;;;;;;;;;;;;;;27.11;44.64;101616.59;5058639;28;19928;-72
2023/06/12 01:50:31;;;;;;;;;;;;;;;27.09;44.55;101619.53;5068401;28;19918;-72
2023/06/12 01:52:56;;;;;;;;;;;;;;;27.09;44.74;101621.38;5058960;28;19917;-72
2023/06/12 01:55:22;;;;;;;;;;;;;;;27.08;44.56;101625.16;5061487;28;19942;-72
2023/06/12 01:57:48;;;;;;;;;;;;;;;27.07;44.42;101623.50;5066943;28;19928;-73
2023/06/12 02:00:14;;;;;;;;;;;;;;;27.07;44.46;101626.22;5056526;28;19952;-72
2023/06/12 02:02:39;;;;;;;;;;;;;;;27.06;44.46;101627.25;5075013;28;19935;-72
2023/06/12 02:05:05;;;;;;;;;;;;;;;27.05;44.51;101623.69;5063048;28;20373;-73
2023/06/12 02:07:30;;;;;;;;;;;;;;;27.05;44.58;101633.75;5048393;28;19913;-72
2023/06/12 02:09:55;;;;;;;;;;;;;;;27.04;44.42;101632.94;5051357;28;19920;-73
2023/06/12 02:12:20;;;;;;;;;;;;;;;27.04;44.41;101634.81;5068666;28;19920;-73
2023/06/12 02:14:47;;;;;;;;;;;;;;;27.03;44.56;101624.94;5062719;28;19920;-73
2023/06/12 02:17:13;;;;;;;;;;;;;;;27.02;44.41;101621.38;5068109;28;19912;-73
2023/06/12 02:19:39;;;;;;;;;;;;;;;27.01;44.30;101625.13;5067869;28;19916;-72
2023/06/12 02:22:04;;;;;;;;;;;;;;;27.00;44.55;101623.47;5062740;28;19947;-72
2023/06/12 02:24:30;;;;;;;;;;;;;;;27.00;44.28;101633.53;5073947;28;19912;-72
2023/06/12 02:26:55;;;;;;;;;;;;;;;26.99;44.29;101629.97;5040203;28;20028;-72
2023/06/12 02:29:20;;;;;;;;;;;;;;;26.98;44.29;101630.19;5053596;28;19959;-72
2023/06/12 02:31:46;;;;;;;;;;;;;;;26.98;44.22;101636.50;5065032;28;20401;-72
2023/06/12 02:34:11;;;;;;;;;;;;;;;26.97;44.41;101637.50;5062711;28;19913;-72
2023/06/12 02:36:40;;;;;;;;;;;;;;;26.97;44.53;101631.22;5070220;28;19916;-71
2023/06/12 02:39:08;;;;;;;;;;;;;;;26.96;44.12;101633.09;5065406;28;19956;-72
2023/06/12 02:41:34;;;;;;;;;;;;;;;26.95;44.32;101636.88;5060436;28;20672;-73
2023/06/12 02:43:59;;;;;;;;;;;;;;;26.95;44.41;101636.06;5066653;28;19916;-73
2023/06/12 02:46:24;;;;;;;;;;;;;;;26.94;44.22;101634.38;5050866;28;19942;-72
2023/06/12 02:48:50;;;;;;;;;;;;;;;26.94;44.10;101635.22;5059941;28;19917;-72
2023/06/12 02:51:15;;;;;;;;;;;;;;;26.94;44.25;101634.38;5075312;28;19913;-72
2023/06/12 02:53:40;;;;;;;;;;;;;;;26.91;44.10;101636.44;5061011;28;19913;-72
2023/06/12 02:56:05;;;;;;;;;;;;;;;26.91;44.13;101630.16;5066409;28;19913;-72
2023/06/12 02:58:32;;;;;;;;;;;;;;;26.91;44.16;101635.63;5068232;28;19916;-72
2023/06/12 03:00:57;;;;;;;;;;;;;;;26.90;44.02;101639.41;5061429;28;19916;-73
2023/06/12 03:03:22;;;;;;;;;;;;;;;26.88;44.04;101631.41;5068483;28;19913;-73
2023/06/12 03:05:47;;;;;;;;;;;;;;;26.88;44.02;101630.56;5063319;28;20854;-72
2023/06/12 03:08:16;;;;;;;;;;;;;;;26.87;43.97;101626.16;5064728;28;19921;-72
2023/06/12 03:10:41;;;;;;;;;;;;;;;26.87;44.01;101626.16;5066254;28;19988;-73
2023/06/12 03:13:06;;;;;;;;;;;;;;;26.86;43.92;101622.59;5069626;28;19917;-72
2023/06/12 03:15:31;;;;;;;;;;;;;;;26.86;44.04;101629.94;5056896;28;20004;-72
2023/06/12 03:17:57;;;;;;;;;;;;;;;26.85;43.99;101628.25;5071913;28;20291;-72
2023/06/12 03:20:24;;;;;;;;;;;;;;;26.85;44.09;101631.00;5064774;28;19939;-73
2023/06/12 03:22:50;;;;;;;;;;;;;;;26.83;43.89;101625.72;5061122;28;19916;-73
2023/06/12 03:25:18;;;;;;;;;;;;;;;26.83;43.88;101625.72;5071381;28;19958;-74
2023/06/12 03:27:44;;;;;;;;;;;;;;;26.82;44.09;101626.78;5058777;28;19972;-73
2023/06/12 03:30:09;;;;;;;;;;;;;;;26.81;43.82;101625.09;5070123;28;19921;-73
2023/06/12 03:32:34;;;;;;;;;;;;;;;26.82;43.86;101628.66;5045238;28;20450;-73
2023/06/12 03:34:59;;;;;;;;;;;;;;;26.81;43.83;101624.25;5064261;28;19917;-73
2023/06/12 03:37:27;;;;;;;;;;;;;;;26.80;43.71;101628.00;5064232;28;19921;-73
2023/06/12 03:39:53;;;;;;;;;;;;;;;26.78;43.73;101625.50;5067463;28;19917;-73
2023/06/12 03:42:18;;;;;;;;;;;;;;;26.78;43.77;101628.22;5059046;28;20282;-73
2023/06/12 03:44:43;;;;;;;;;;;;;;;26.77;43.76;101629.28;5071093;28;19920;-73
2023/06/12 03:47:08;;;;;;;;;;;;;;;26.77;43.82;101633.91;5066715;28;19916;-72
2023/06/12 03:49:33;;;;;;;;;;;;;;;26.76;43.89;101635.78;5036185;28;19948;-72
2023/06/12 03:51:59;;;;;;;;;;;;;;;26.77;43.68;101636.63;5073466;28;19924;-72
2023/06/12 03:54:24;;;;;;;;;;;;;;;26.75;43.83;101638.69;5057183;28;19996;-73
2023/06/12 03:56:49;;;;;;;;;;;;;;;26.75;43.79;101641.41;5067166;28;19912;-73
2023/06/12 03:59:15;;;;;;;;;;;;;;;26.74;43.78;101651.50;5065005;28;19921;-73
2023/06/12 04:01:42;;;;;;;;;;;;;;;26.74;43.51;101637.84;5063133;28;19920;-73
2023/06/12 04:04:07;;;;;;;;;;;;;;;26.72;43.62;101645.41;5066118;28;19916;-72
2023/06/12 04:06:33;;;;;;;;;;;;;;;26.73;43.70;101640.78;5047358;28;19920;-73
2023/06/12 04:08:59;;;;;;;;;;;;;;;26.71;43.58;101643.72;5062391;28;19948;-73
2023/06/12 04:11:25;;;;;;;;;;;;;;;26.70;43.76;101642.03;5062319;28;19971;-73
2023/06/12 04:13:50;;;;;;;;;;;;;;;26.71;43.85;101645.59;5069812;28;20344;-73
2023/06/12 04:16:15;;;;;;;;;;;;;;;26.70;43.54;101652.09;5054131;28;19920;-72
2023/06/12 04:18:40;;;;;;;;;;;;;;;26.69;43.56;101648.53;5055949;28;19984;-73
2023/06/12 04:21:06;;;;;;;;;;;;;;;26.69;43.63;101656.72;5061388;28;19994;-74
2023/06/12 04:23:32;;;;;;;;;;;;;;;26.69;43.54;101647.69;5061101;28;19920;-73
2023/06/12 04:26:04;;;;;;;;;;;;;;;26.67;43.53;101642.44;5069572;28;20370;-74
2023/06/12 04:28:33;;;;;;;;;;;;;;;26.66;43.65;101646.22;5066007;28;19924;-73
2023/06/12 04:30:59;;;;;;;;;;;;;;;26.66;43.53;101649.78;5064242;28;19916;-74
2023/06/12 04:33:28;;;;;;;;;;;;;;;26.65;43.73;101642.66;5045650;28;19921;-73
2023/06/12 04:35:55;;;;;;;;;;;;;;;26.66;43.71;101643.47;5047047;28;20267;-73
2023/06/12 04:38:23;;;;;;;;;;;;;;;26.65;43.54;101644.53;5043743;28;19955;-72
2023/06/12 04:40:51;;;;;;;;;;;;;;;26.64;43.74;101642.84;5070070;28;19913;-73
2023/06/12 04:43:19;;;;;;;;;;;;;;;26.63;43.47;101641.16;5053999;28;20390;-72
2023/06/12 04:45:44;;;;;;;;;;;;;;;26.63;43.47;101639.28;5040525;28;19913;-72
2023/06/12 04:48:09;;;;;;;;;;;;;;;26.62;43.53;101637.59;5062946;28;19913;-72
2023/06/12 04:50:36;;;;;;;;;;;;;;;26.61;43.54;101638.63;5061194;28;20019;-73
2023/06/12 04:53:01;;;;;;;;;;;;;;;26.61;43.48;101633.19;5070353;28;19924;-72
2023/06/12 04:55:28;;;;;;;;;;;;;;;26.61;43.71;101643.25;5059050;28;20011;-72
2023/06/12 04:57:54;;;;;;;;;;;;;;;26.60;43.46;101647.88;5065721;28;19916;-72
2023/06/12 05:00:19;;;;;;;;;;;;;;;26.60;43.70;101641.59;5044717;28;19920;-72
2023/06/12 05:02:46;;;;;;;;;;;;;;;26.60;43.60;101647.88;5047949;28;19920;-72
2023/06/12 05:05:11;;;;;;;;;;;;;;;26.59;43.61;101645.31;5062993;28;20373;-72
2023/06/12 05:07:36;;;;;;;;;;;;;;;26.58;43.53;101641.75;5067229;28;19917;-73
2023/06/12 05:10:09;;;;;;;;;;;;;;;26.59;43.56;101645.31;5058061;28;19920;-73
2023/06/12 05:12:34;;;;;;;;;;;;;;;26.58;43.62;101649.09;5049525;28;20010;-73
2023/06/12 05:14:59;;;;;;;;;;;;;;;26.57;43.46;101651.00;5064728;28;19932;-73
2023/06/12 05:17:26;;;;;;;;;;;;;;;26.57;43.54;101655.63;5053988;28;19913;-73
2023/06/12 05:19:51;;;;;;;;;;;;;;;26.57;43.54;101655.63;5072182;28;19917;-73
2023/06/12 05:22:16;;;;;;;;;;;;;;;26.55;43.51;101655.81;5057506;28;19988;-72
2023/06/12 05:24:41;;;;;;;;;;;;;;;26.55;43.48;101654.97;5063688;28;19913;-72
2023/06/12 05:27:07;;;;;;;;;;;;;;;26.55;43.64;101649.50;5064316;28;19917;-72
2023/06/12 05:29:32;;;;;;;;;;;;;;;26.54;43.59;101647.81;5062121;28;20387;-72
2023/06/12 05:31:57;;;;;;;;;;;;;;;26.53;43.66;101652.44;5043971;28;19952;-73
2023/06/12 05:34:22;;;;;;;;;;;;;;;26.52;43.72;101653.50;5064581;28;19912;-72
2023/06/12 05:36:48;;;;;;;;;;;;;;;26.52;43.38;101645.31;5065291;28;19919;-73
2023/06/12 05:39:13;;;;;;;;;;;;;;;26.52;43.44;101648.03;5064495;28;19916;-73
2023/06/12 05:41:39;;;;;;;;;;;;;;;26.51;43.45;101643.63;5073156;28;19939;-73
2023/06/12 05:44:05;;;;;;;;;;;;;;;26.51;43.56;101648.25;5038465;28;19913;-73
2023/06/12 05:46:30;;;;;;;;;;;;;;;26.50;43.57;101646.53;5059093;28;21031;-73
2023/06/12 05:48:57;;;;;;;;;;;;;;;26.50;43.62;101650.09;5066383;28;19913;-73
2023/06/12 05:51:23;;;;;;;;;;;;;;;26.50;43.60;101657.44;5061663;28;19916;-72
2023/06/12 05:53:48;;;;;;;;;;;;;;;26.49;43.60;101645.69;5070897;28;20319;-72
2023/06/12 05:56:13;;;;;;;;;;;;;;;26.48;43.46;101652.22;5066643;28;19952;-72
2023/06/12 05:58:40;;;;;;;;;;;;;;;26.49;43.39;101655.78;5049042;28;19956;-73
2023/06/12 06:01:05;;;;;;;;;;;;;;;26.48;43.58;101651.38;5067464;28;20004;-72
2023/06/12 06:03:32;;;;;;;;;;;;;;;26.48;43.64;101662.28;5068063;28;20317;-72
2023/06/12 06:05:58;;;;;;;;;;;;;;;26.47;43.69;101653.25;5061282;28;19916;-73
2023/06/12 06:08:23;;;;;;;;;;;;;;;26.47;43.63;101655.16;5073795;28;19919;-72
2023/06/12 06:10:48;;;;;;;;;;;;;;;26.47;43.73;101660.59;5052815;28;19913;-72
2023/06/12 06:13:13;;;;;;;;;;;;;;;26.47;43.65;101657.88;5041940;28;19919;-72
2023/06/12 06:15:38;;;;;;;;;;;;;;;26.47;43.67;101660.59;5067791;28;20007;-73
2023/06/12 06:18:04;;;;;;;;;;;;;;;26.45;43.70;101651.75;5059386;28;19990;-73
2023/06/12 06:20:29;;;;;;;;;;;;;;;26.46;43.64;101656.16;5073269;28;19913;-72
2023/06/12 06:22:54;;;;;;;;;;;;;;;26.44;43.77;101659.09;5061351;28;19917;-72
2023/06/12 06:25:20;;;;;;;;;;;;;;;26.44;43.57;101661.84;5064726;28;20005;-73
2023/06/12 06:27:46;;;;;;;;;;;;;;;26.44;43.53;101661.84;5067132;28;19913;-72
2023/06/12 06:30:11;;;;;;;;;;;;;;;26.43;43.74;101663.69;5068026;28;19913;-73
2023/06/12 06:32:36;;;;;;;;;;;;;;;26.43;43.59;101665.59;5060406;28;19912;-73
2023/06/12 06:35:02;;;;;;;;;;;;;;;26.43;43.86;101671.03;5053368;28;19920;-73
2023/06/12 06:37:27;;;;;;;;;;;;;;;26.42;43.79;101667.47;5045224;28;19917;-73
2023/06/12 06:39:53;;;;;;;;;;;;;;;26.43;43.68;101666.41;5064494;28;19921;-73
2023/06/12 06:42:18;;;;;;;;;;;;;;;26.42;43.73;101667.47;5071500;28;19936;-73
2023/06/12 06:44:43;;;;;;;;;;;;;;;26.42;43.60;101666.59;5055377;28;19913;-73
2023/06/12 06:47:09;;;;;;;;;;;;;;;26.41;43.78;101668.50;5071348;28;19912;-73
2023/06/12 06:49:35;;;;;;;;;;;;;;;26.41;43.59;101668.50;5062891;28;19913;-73
2023/06/12 06:52:00;;;;;;;;;;;;;;;26.40;43.75;101666.81;5064395;28;20435;-73
2023/06/12 06:54:25;;;;;;;;;;;;;;;26.40;43.65;101666.81;5070831;28;19912;-73
2023/06/12 06:56:50;;;;;;;;;;;;;;;26.40;43.80;101664.09;5047915;28;19920;-73
2023/06/12 06:59:16;;;;;;;;;;;;;;;26.39;43.76;101665.13;5060390;28;19924;-73
2023/06/12 07:01:41;;;;;;;;;;;;;;;26.39;43.76;101662.41;5068174;28;20143;-73
2023/06/12 07:04:06;;;;;;;;;;;;;;;26.39;43.76;101665.13;5066283;28;20393;-73
2023/06/12 07:06:33;;;;;;;;;;;;;;;26.39;43.74;101656.13;5058659;28;19927;-73
2023/06/12 07:08:58;;;;;;;;;;;;;;;26.38;43.67;101663.47;5068277;28;19916;-73
2023/06/12 07:11:23;;;;;;;;;;;;;;;26.38;43.56;101659.88;5041221;28;19917;-73
2023/06/12 07:13:49;;;;;;;;;;;;;;;26.39;43.70;101658.84;5051207;28;19921;-73
2023/06/12 07:16:14;;;;;;;;;;;;;;;26.38;43.66;101658.00;5048408;28;19964;-73
2023/06/12 07:18:39;;;;;;;;;;;;;;;26.37;43.80;101650.84;5060861;28;20415;-73
2023/06/12 07:21:04;;;;;;;;;;;;;;;26.37;43.62;101656.28;5067825;28;19912;-73
2023/06/12 07:23:30;;;;;;;;;;;;;;;26.37;43.74;101659.03;5063004;28;19995;-73
2023/06/12 07:25:55;;;;;;;;;;;;;;;26.38;43.81;101654.44;5062501;28;19919;-73
2023/06/12 07:28:20;;;;;;;;;;;;;;;26.38;43.78;101657.16;5066018;28;19913;-73
2023/06/12 07:30:45;;;;;;;;;;;;;;;26.37;43.74;101648.13;5051580;28;20440;-73
2023/06/12 07:33:10;;;;;;;;;;;;;;;26.37;43.60;101660.91;5056171;28;19951;-73
2023/06/12 07:35:36;;;;;;;;;;;;;;;26.37;43.60;101652.72;5058076;28;19913;-73
2023/06/12 07:38:02;;;;;;;;;;;;;;;26.37;43.56;101655.47;5053475;28;19928;-74
2023/06/12 07:40:27;;;;;;;;;;;;;;;26.37;43.62;101655.47;5058106;28;19975;-73
2023/06/12 07:42:52;;;;;;;;;;;;;;;26.37;43.55;101650.84;5068210;28;19913;-73
2023/06/12 07:45:18;;;;;;;;;;;;;;;26.36;43.74;101645.59;5058870;28;19916;-73
2023/06/12 07:47:43;;;;;;;;;;;;;;;26.37;43.50;101647.28;5051486;28;19959;-72
2023/06/12 07:50:08;;;;;;;;;;;;;;;26.36;43.52;101646.44;5046746;28;19920;-72
2023/06/12 07:52:34;;;;;;;;;;;;;;;26.36;43.45;101641.00;5064186;28;20351;-74
2023/06/12 07:54:59;;;;;;;;;;;;;;;26.37;43.62;101641.81;5063339;28;20408;-72
2023/06/12 07:57:24;;;;;;;;;;;;;;;26.36;43.49;101642.88;5051681;28;19913;-72
2023/06/12 07:59:50;;;;;;;;;;;;;;;26.36;43.62;101642.88;5057595;28;19913;-72
2023/06/12 08:02:16;;;;;;;;;;;;;;;26.35;43.75;101639.31;5051239;28;19936;-72
2023/06/12 08:04:42;;;;;;;;;;;;;;;26.37;43.67;101639.09;5047524;28;19912;-72
2023/06/12 08:07:10;;;;;;;;;;;;;;;26.35;43.66;101633.84;5056041;28;19983;-72
2023/06/12 08:09:35;;;;;;;;;;;;;;;26.36;43.58;101641.00;5072283;28;19944;-73
2023/06/12 08:12:01;;;;;;;;;;;;;;;26.36;43.83;101638.25;5056444;28;19920;-72
2023/06/12 08:14:26;;;;;;;;;;;;;;;26.36;43.69;101641.00;5065133;28;19954;-73
2023/06/12 08:16:52;;;;;;;;;;;;;;;26.36;43.72;101637.41;5064410;28;20063;-73
2023/06/12 08:19:17;;;;;;;;;;;;;;;26.36;43.57;101632.81;5065336;28;19970;-72
2023/06/12 08:21:42;;;;;;;;;;;;;;;26.36;43.68;101635.53;5064458;28;19913;-72
2023/06/12 08:24:09;;;;;;;;;;;;;;;26.36;43.56;101634.69;5065280;28;19944;-72
2023/06/12 08:26:34;;;;;;;;;;;;;;;26.36;43.72;101630.06;5060233;28;19959;-73
2023/06/12 08:29:00;;;;;;;;;;;;;;;26.37;43.83;101630.91;5063041;28;19916;-73
2023/06/12 08:31:25;;;;;;;;;;;;;;;26.37;43.60;101630.91;5068275;28;19917;-72
2023/06/12 08:33:50;;;;;;;;;;;;;;;26.37;43.67;101633.66;5051813;28;19920;-72
2023/06/12 08:36:15;;;;;;;;;;;;;;;26.36;43.78;101635.53;5070956;28;20343;-73
2023/06/12 08:38:41;;;;;;;;;;;;;;;26.37;43.92;101639.94;5058913;28;20020;-73
2023/06/12 08:41:06;;;;;;;;;;;;;;;26.37;43.72;101631.75;5065001;28;20277;-72
2023/06/12 08:43:31;;;;;;;;;;;;;;;26.37;43.95;101631.75;5067683;28;19912;-72
2023/06/12 08:45:57;;;;;;;;;;;;;;;26.38;43.79;101635.34;5059846;28;19917;-72
2023/06/12 08:48:23;;;;;;;;;;;;;;;26.38;43.90;101636.19;5044988;28;19913;-72
2023/06/12 08:50:49;;;;;;;;;;;;;;;26.38;43.84;101629.91;5045882;28;19940;-72
2023/06/12 08:53:15;;;;;;;;;;;;;;;26.38;43.95;101635.34;5062632;28;19913;-72
2023/06/12 08:55:40;;;;;;;;;;;;;;;26.37;43.75;101629.03;5060554;28;19913;-73
2023/06/12 08:58:05;;;;;;;;;;;;;;;26.38;44.03;101619.84;5050703;28;20301;-72
2023/06/12 09:00:31;;;;;;;;;;;;;;;26.37;43.96;101623.56;5053623;28;19920;-72
2023/06/12 09:02:56;;;;;;;;;;;;;;;26.38;43.98;101613.53;5053787;28;19980;-72
2023/06/12 09:05:29;;;;;;;;;;;;;;;26.39;43.80;101616.06;5045030;28;19935;-73
2023/06/12 09:07:55;;;;;;;;;;;;;;;26.40;44.00;101617.72;5046753;28;20007;-72
2023/06/12 09:10:20;;;;;;;;;;;;;;;26.39;44.02;101616.06;5071633;28;19917;-72
2023/06/12 09:12:45;;;;;;;;;;;;;;;26.40;44.08;101623.19;5061103;28;19920;-72
2023/06/12 09:15:17;;;;;;;;;;;;;;;26.40;43.91;101611.44;5050372;28;19921;-72
2023/06/12 09:17:45;;;;;;;;;;;;;;;26.40;43.91;101614.16;5064340;28;19917;-73
2023/06/12 09:20:14;;;;;;;;;;;;;;;26.41;44.12;101613.94;5068580;28;19917;-71
2023/06/12 09:22:40;;;;;;;;;;;;;;;26.41;44.03;101610.38;5045310;28;19980;-72
2023/06/12 09:25:05;;;;;;;;;;;;;;;26.41;44.11;101610.38;5074986;28;19936;-73
2023/06/12 09:27:31;;;;;;;;;;;;;;;26.41;44.09;101594.88;5061167;28;20317;-72
2023/06/12 09:30:00;;;;;;;;;;;;;;;26.42;44.07;101606.59;5055283;28;19995;-72
2023/06/12 09:32:27;;;;;;;;;;;;;;;26.42;44.17;101609.34;5062294;28;19921;-73
2023/06/12 09:34:52;;;;;;;;;;;;;;;26.42;43.88;101607.47;5055390;28;19912;-71
2023/06/12 09:37:18;;;;;;;;;;;;;;;26.43;43.93;101609.16;5044771;28;19913;-73
2023/06/12 09:39:44;;;;;;;;;;;;;;;26.42;44.19;101602.03;5062851;28;19917;-72
2023/06/12 09:42:13;;;;;;;;;;;;;;;26.44;44.06;101610.03;5067683;28;20392;-72
2023/06/12 09:44:38;;;;;;;;;;;;;;;26.44;44.24;101607.28;5067241;28;19917;-73
2023/06/12 09:47:04;;;;;;;;;;;;;;;26.45;44.15;101599.97;5051989;28;19970;-72
2023/06/12 09:49:30;;;;;;;;;;;;;;;26.45;44.18;101613.59;5047609;28;19936;-73
2023/06/12 09:51:55;;;;;;;;;;;;;;;26.45;44.24;101600.78;5071729;28;19923;-72
2023/06/12 09:54:22;;;;;;;;;;;;;;;26.46;44.35;101596.19;5062389;28;19912;-73
2023/06/12 09:56:48;;;;;;;;;;;;;;;26.46;44.23;101602.47;5053610;28;19938;-72
2023/06/12 09:59:19;;;;;;;;;;;;;;;26.47;44.30;101597.88;5070847;28;19924;-73
2023/06/12 10:01:49;;;;;;;;;;;;;;;26.48;44.32;101596.84;5042826;28;19972;-73
2023/06/12 10:04:15;;;;;;;;;;;;;;;26.49;44.27;101601.22;5062767;28;19913;-73
2023/06/12 10:06:40;;;;;;;;;;;;;;;26.48;44.39;101594.09;5062391;28;19916;-73
2023/06/12 10:09:09;;;;;;;;;;;;;;;26.49;44.50;101598.50;5050303;28;19913;-73
2023/06/12 10:11:35;;;;;;;;;;;;;;;26.49;44.39;101587.59;5054688;28;19920;-72
2023/06/12 10:14:00;;;;;;;;;;;;;;;26.50;44.38;101589.28;5051499;28;19975;-73
2023/06/12 10:16:26;;;;;;;;;;;;;;;26.50;44.61;101586.53;5066507;28;19956;-72
2023/06/12 10:18:51;;;;;;;;;;;;;;;26.51;44.32;101593.72;5051431;28;20292;-72
2023/06/12 10:21:17;;;;;;;;;;;;;;;26.51;44.57;101591.81;5064557;28;19920;-73
2023/06/12 10:23:42;;;;;;;;;;;;;;;26.53;44.17;101584.25;5064194;28;19912;-73
2023/06/12 10:26:07;;;;;;;;;;;;;;;26.53;44.54;101583.41;5055120;28;19950;-72
2023/06/12 10:28:33;;;;;;;;;;;;;;;26.54;44.49;101585.09;5057177;28;20062;-73
2023/06/12 10:31:12;;;;;;;;;;;;;;;26.54;44.65;101585.09;5072473;28;20445;-73
2023/06/12 10:33:38;;;;;;;;;;;;;;;26.55;44.49;101570.41;5036468;28;19917;-72
2023/06/12 10:36:10;;;;;;;;;;;;;;;26.55;44.34;101582.19;5066611;28;19956;-73
2023/06/12 10:38:48;;;;;;;;;;;;;;;26.57;44.60;101571.91;5070833;28;19991;-73
2023/06/12 10:41:28;;;;;;;;;;;;;;;26.58;44.51;101562.66;5064104;28;19934;-72
2023/06/12 10:43:54;;;;;;;;;;;;;;;26.60;44.62;101571.50;5065007;28;19913;-72
2023/06/12 10:46:19;;;;;;;;;;;;;;;26.62;44.50;101576.75;5050897;28;19998;-72
2023/06/12 10:48:45;;;;;;;;;;;;;;;26.63;44.42;101570.22;5063097;28;19913;-73
2023/06/12 10:51:10;;;;;;;;;;;;;;;26.64;44.55;101566.47;5066582;28;19913;-73
2023/06/12 10:53:36;;;;;;;;;;;;;;;26.65;44.43;101558.09;5070051;28;19942;-73
2023/06/12 10:56:08;;;;;;;;;;;;;;;26.67;44.40;101561.44;5055851;28;19913;-73
2023/06/12 10:58:39;;;;;;;;;;;;;;;26.70;44.36;101567.53;5070461;28;19916;-73
2023/06/12 11:01:08;;;;;;;;;;;;;;;26.71;44.53;101561.03;5049202;28;19923;-73
2023/06/12 11:03:36;;;;;;;;;;;;;;;26.73;44.50;101567.16;5047306;28;19913;-73
2023/06/12 11:06:15;;;;;;;;;;;;;;;26.74;44.26;101552.44;5046472;28;19912;-73
2023/06/12 11:08:41;;;;;;;;;;;;;;;26.77;44.27;101557.50;5063350;28;19913;-73
2023/06/12 11:11:09;;;;;;;;;;;;;;;26.78;44.47;101546.38;5053602;28;19917;-73
2023/06/12 11:13:36;;;;;;;;;;;;;;;26.80;44.55;101546.16;5066188;28;19942;-73
2023/06/12 11:16:01;;;;;;;;;;;;;;;26.81;44.46;101545.97;5061310;28;19948;-73
2023/06/12 11:18:27;;;;;;;;;;;;;;;26.85;44.37;101549.13;5066505;28;19917;-73
2023/06/12 11:20:52;;;;;;;;;;;;;;;26.86;44.33;101548.06;5052719;28;19916;-73
2023/06/12 11:23:19;;;;;;;;;;;;;;;26.88;44.34;101545.97;5054669;28;19917;-73
2023/06/12 11:25:44;;;;;;;;;;;;;;;26.90;44.38;101541.16;5058292;28;19920;-72
2023/06/12 11:28:13;;;;;;;;;;;;;;;26.92;44.38;101547.25;5061707;28;19917;-72
2023/06/12 11:30:39;;;;;;;;;;;;;;;26.95;44.28;101546.00;5042750;28;19928;-72
2023/06/12 11:33:08;;;;;;;;;;;;;;;26.97;44.49;101546.63;5068923;28;19912;-72
2023/06/12 11:35:38;;;;;;;;;;;;;;;26.99;44.49;101541.81;5062968;28;19920;-72
2023/06/12 11:38:05;;;;;;;;;;;;;;;27.02;44.24;101527.75;5065612;28;19924;-73
2023/06/12 11:40:30;;;;;;;;;;;;;;;27.04;44.30;101533.84;5062647;28;19913;-73
2023/06/12 11:42:55;;;;;;;;;;;;;;;27.06;44.33;101529.00;5064405;28;20008;-73
2023/06/12 11:45:21;;;;;;;;;;;;;;;27.09;44.21;101526.72;5064570;28;19917;-73
2023/06/12 11:47:46;;;;;;;;;;;;;;;27.11;44.32;101518.34;5054101;28;20325;-73
2023/06/12 11:50:13;;;;;;;;;;;;;;;27.13;44.14;101521.69;5049353;28;19940;-73
2023/06/12 11:52:39;;;;;;;;;;;;;;;27.15;44.16;101523.19;5055367;28;19917;-72
2023/06/12 11:55:05;;;;;;;;;;;;;;;27.19;44.23;101522.72;5062889;28;19913;-73
2023/06/12 11:57:31;;;;;;;;;;;;;;;27.20;44.34;101516.25;5043488;28;19963;-73
2023/06/12 11:59:56;;;;;;;;;;;;;;;27.23;44.21;101513.94;5070820;28;19913;-73
2023/06/12 12:02:29;;;;;;;;;;;;;;;27.26;44.02;101518.13;5059973;28;19920;-73
2023/06/12 12:04:55;;;;;;;;;;;;;;;27.28;44.00;101519.59;5065023;28;19958;-74
2023/06/12 12:07:20;;;;;;;;;;;;;;;27.31;44.16;101518.31;5061522;28;19923;-74
2023/06/12 12:09:46;;;;;;;;;;;;;;;27.32;44.06;101512.69;5049291;28;19912;-72
2023/06/12 12:12:12;;;;;;;;;;;;;;;27.33;44.32;101511.63;5045188;28;19918;-74
2023/06/12 12:14:49;;;;;;;;;;;;;;;27.35;44.17;101517.69;5055049;28;19924;-73
2023/06/12 12:17:15;;;;;;;;;;;;;;;27.36;44.21;101522.13;5055383;28;19916;-73
2023/06/12 12:19:41;;;;;;;;;;;;;;;27.36;44.40;101511.22;5072647;28;19917;-73
2023/06/12 12:22:08;;;;;;;;;;;;;;;27.39;44.24;101515.38;5063673;28;20141;-73
2023/06/12 12:24:36;;;;;;;;;;;;;;;27.41;44.20;101505.09;5058132;28;19917;-73
2023/06/12 12:27:02;;;;;;;;;;;;;;;27.44;44.16;101512.03;5072557;28;19920;-73
2023/06/12 12:29:27;;;;;;;;;;;;;;;27.46;44.15;101509.94;5057554;28;19917;-74